Time;durP1;ratioP1;P1;durP2;ratioP2;P2;SDS_P1;SDS_P2;PMS_P1;PMS_P2;Temp;Humidity;BMP_temperature;BMP_pressure;BME280_temperature;BME280_humidity;BME280_pressure;Samples;Min_cycle;Max_cycle;Signal;HPM_P1;HPM_P2
2021/12/02 00:00:43;;;;;;;2.43;1.47;;;;;;;;;;6308486;22;20196;-81
2021/12/02 00:03:12;;;;;;;8.43;2.23;;;;;;;;;;6307945;22;20208;-81
2021/12/02 00:05:42;;;;;;;2.03;1.53;;;;;;;;;;6308025;22;20168;-81
2021/12/02 00:08:10;;;;;;;1.33;1.23;;;;;;;;;;6308208;22;20237;-80
2021/12/02 00:10:40;;;;;;;1.47;1.37;;;;;;;;;;6308217;22;20169;-80
2021/12/02 00:13:12;;;;;;;0.90;0.90;;;;;;;;;;6308106;22;20177;-79
2021/12/02 00:15:47;;;;;;;0.90;0.90;;;;;;;;;;6308376;22;20168;-79
2021/12/02 00:21:03;;;;;;;1.30;1.20;;;;;;;;;;6308310;22;20233;-79
2021/12/02 00:21:30;;;;;;;2.83;1.23;;;;;;;;;;6308178;22;20247;-80
2021/12/02 00:24:03;;;;;;;5.17;2.40;;;;;;;;;;6307890;22;20172;-80
2021/12/02 00:26:32;;;;;;;0.90;0.90;;;;;;;;;;6307982;22;20204;-80
2021/12/02 00:29:03;;;;;;;0.80;0.80;;;;;;;;;;6308027;22;20175;-80
2021/12/02 00:31:35;;;;;;;1.17;1.17;;;;;;;;;;6307954;22;20164;-81
2021/12/02 00:34:05;;;;;;;1.00;1.00;;;;;;;;;;6307726;22;20176;-81
2021/12/02 00:36:34;;;;;;;0.80;0.80;;;;;;;;;;6308258;22;20176;-81
2021/12/02 00:39:07;;;;;;;0.80;0.80;;;;;;;;;;6307800;22;20172;-81
2021/12/02 00:41:35;;;;;;;0.80;0.80;;;;;;;;;;6307720;22;20195;-81
2021/12/02 00:44:06;;;;;;;0.80;0.80;;;;;;;;;;6307929;22;20225;-81
2021/12/02 00:46:35;;;;;;;0.80;0.80;;;;;;;;;;6307701;22;20172;-81
2021/12/02 00:49:06;;;;;;;0.80;0.80;;;;;;;;;;6307784;22;20176;-80
2021/12/02 00:51:36;;;;;;;0.80;0.80;;;;;;;;;;6308093;22;20214;-81
2021/12/02 00:54:07;;;;;;;0.70;0.70;;;;;;;;;;6307662;22;20222;-80
2021/12/02 00:56:36;;;;;;;9.13;1.20;;;;;;;;;;6307726;22;20210;-80
2021/12/02 00:59:06;;;;;;;0.70;0.70;;;;;;;;;;6307932;22;20168;-80
2021/12/02 01:01:36;;;;;;;0.80;0.80;;;;;;;;;;6308179;22;20238;-81
2021/12/02 01:04:07;;;;;;;7.73;1.53;;;;;;;;;;6307415;22;20192;-79
2021/12/02 01:06:36;;;;;;;3.47;1.13;;;;;;;;;;6307691;22;20195;-81
2021/12/02 01:09:05;;;;;;;5.10;1.67;;;;;;;;;;6307480;22;20201;-81
2021/12/02 01:11:34;;;;;;;1.33;1.20;;;;;;;;;;6308126;22;20172;-81
2021/12/02 01:14:03;;;;;;;1.73;1.47;;;;;;;;;;6307487;22;20234;-81
2021/12/02 01:16:34;;;;;;;2.53;1.97;;;;;;;;;;6308545;22;20226;-81
2021/12/02 01:19:04;;;;;;;2.00;1.50;;;;;;;;;;6307467;22;20168;-81
2021/12/02 01:21:33;;;;;;;3.60;1.27;;;;;;;;;;6307955;22;20261;-81
2021/12/02 01:24:03;;;;;;;1.47;1.47;;;;;;;;;;6309635;22;20173;-81
2021/12/02 01:26:32;;;;;;;2.27;1.23;;;;;;;;;;6309556;22;20204;-81
2021/12/02 01:29:02;;;;;;;1.10;1.10;;;;;;;;;;6309467;22;20182;-81
2021/12/02 01:31:32;;;;;;;4.00;1.30;;;;;;;;;;6309621;22;20168;-80
2021/12/02 01:34:03;;;;;;;0.80;0.80;;;;;;;;;;6309608;22;20168;-80
2021/12/02 01:36:35;;;;;;;0.80;0.80;;;;;;;;;;6309519;22;20194;-80
2021/12/02 01:39:05;;;;;;;3.60;1.53;;;;;;;;;;6309161;22;20180;-80
2021/12/02 01:41:37;;;;;;;0.80;0.80;;;;;;;;;;6309174;22;20195;-80
2021/12/02 01:44:11;;;;;;;0.80;0.80;;;;;;;;;;6309408;22;20211;-80
2021/12/02 01:46:41;;;;;;;2.73;1.47;;;;;;;;;;6309351;22;20214;-80
2021/12/02 01:49:12;;;;;;;1.00;1.00;;;;;;;;;;6309595;22;20167;-80
2021/12/02 01:51:42;;;;;;;0.70;0.70;;;;;;;;;;6309390;22;20165;-80
2021/12/02 01:54:12;;;;;;;1.00;1.00;;;;;;;;;;6309580;22;20254;-80
2021/12/02 01:56:43;;;;;;;1.33;1.33;;;;;;;;;;6309147;22;20179;-80
2021/12/02 01:59:13;;;;;;;3.63;1.73;;;;;;;;;;6309812;22;20194;-79
2021/12/02 02:01:42;;;;;;;6.60;1.27;;;;;;;;;;6309391;22;20194;-80
2021/12/02 02:04:13;;;;;;;2.10;1.07;;;;;;;;;;6309082;22;20266;-80
2021/12/02 02:06:46;;;;;;;3.90;2.97;;;;;;;;;;6309649;22;20190;-80
2021/12/02 02:09:20;;;;;;;0.80;0.80;;;;;;;;;;6309361;22;20189;-80
2021/12/02 02:11:49;;;;;;;3.60;1.73;;;;;;;;;;6309307;22;20222;-80
2021/12/02 02:14:19;;;;;;;5.80;1.77;;;;;;;;;;6308838;22;20175;-80
2021/12/02 02:16:50;;;;;;;4.00;1.77;;;;;;;;;;6309298;22;20164;-80
2021/12/02 02:19:23;;;;;;;2.43;1.57;;;;;;;;;;6308883;22;20171;-81
2021/12/02 02:21:53;;;;;;;3.97;1.50;;;;;;;;;;6308461;22;20269;-81
2021/12/02 02:24:22;;;;;;;2.57;1.83;;;;;;;;;;6308755;22;20198;-81
2021/12/02 02:26:51;;;;;;;1.63;1.53;;;;;;;;;;6308522;22;20230;-80
2021/12/02 02:29:20;;;;;;;0.90;0.90;;;;;;;;;;6308818;22;20226;-80
2021/12/02 02:31:49;;;;;;;2.10;1.00;;;;;;;;;;6308687;22;20175;-81
2021/12/02 02:34:23;;;;;;;0.90;0.90;;;;;;;;;;6309358;22;20221;-80
2021/12/02 02:36:55;;;;;;;1.00;1.00;;;;;;;;;;6308782;22;20161;-80
2021/12/02 02:39:24;;;;;;;1.57;1.47;;;;;;;;;;6309124;22;20174;-81
2021/12/02 02:41:57;;;;;;;0.83;0.83;;;;;;;;;;6308812;22;20192;-81
2021/12/02 02:44:27;;;;;;;1.67;1.67;;;;;;;;;;6308555;22;20199;-81
2021/12/02 02:46:56;;;;;;;0.70;0.70;;;;;;;;;;6308370;22;20175;-81
2021/12/02 02:49:25;;;;;;;0.80;0.80;;;;;;;;;;6308599;22;20169;-81
2021/12/02 02:51:55;;;;;;;0.80;0.80;;;;;;;;;;6308665;22;20167;-81
2021/12/02 02:54:24;;;;;;;1.00;1.00;;;;;;;;;;6309012;22;20165;-81
2021/12/02 02:56:57;;;;;;;1.70;1.00;;;;;;;;;;6308820;22;20190;-81
2021/12/02 02:59:36;;;;;;;13.43;2.53;;;;;;;;;;6308308;22;20172;-81
2021/12/02 03:02:12;;;;;;;1.10;1.00;;;;;;;;;;6308203;22;20195;-81
2021/12/02 03:04:46;;;;;;;6.13;1.80;;;;;;;;;;6308336;22;20221;-81
2021/12/02 03:07:24;;;;;;;0.80;0.80;;;;;;;;;;6308405;22;20165;-81
2021/12/02 03:09:59;;;;;;;0.90;0.90;;;;;;;;;;6308973;22;20164;-81
2021/12/02 03:12:34;;;;;;;2.43;1.23;;;;;;;;;;6308944;22;20164;-81
2021/12/02 03:17:49;;;;;;;1.33;1.10;;;;;;;;;;6308876;22;20188;-81
2021/12/02 03:20:18;;;;;;;0.90;0.90;;;;;;;;;;6308765;22;20168;-81
2021/12/02 03:22:48;;;;;;;0.73;0.73;;;;;;;;;;6308053;22;20199;-81
2021/12/02 03:25:17;;;;;;;1.13;1.13;;;;;;;;;;6308317;22;20200;-81
2021/12/02 03:27:45;;;;;;;0.70;0.70;;;;;;;;;;6308334;22;20173;-81
2021/12/02 03:30:14;;;;;;;0.70;0.70;;;;;;;;;;6308179;22;20229;-81
2021/12/02 03:32:42;;;;;;;2.60;1.07;;;;;;;;;;6308692;22;20176;-81
2021/12/02 03:35:11;;;;;;;4.27;1.60;;;;;;;;;;6308503;22;20171;-81
2021/12/02 03:37:40;;;;;;;10.33;3.47;;;;;;;;;;6308065;22;20174;-81
2021/12/02 03:40:12;;;;;;;5.47;2.07;;;;;;;;;;6308069;22;20196;-81
2021/12/02 03:42:45;;;;;;;1.00;1.00;;;;;;;;;;6308559;22;20209;-81
2021/12/02 03:45:13;;;;;;;4.63;1.53;;;;;;;;;;6307801;22;20172;-81
2021/12/02 03:47:42;;;;;;;2.03;1.20;;;;;;;;;;6307901;22;20202;-80
2021/12/02 03:50:10;;;;;;;1.30;1.30;;;;;;;;;;6308004;22;20185;-81
2021/12/02 03:52:39;;;;;;;1.90;1.80;;;;;;;;;;6308236;22;20190;-81
2021/12/02 03:55:07;;;;;;;2.43;1.43;;;;;;;;;;6307988;22;20182;-81
2021/12/02 03:57:37;;;;;;;14.63;3.87;;;;;;;;;;6308901;22;20179;-80
2021/12/02 04:00:06;;;;;;;4.17;1.67;;;;;;;;;;6308536;22;20209;-80
2021/12/02 04:02:35;;;;;;;3.13;1.13;;;;;;;;;;6307709;22;20190;-80
2021/12/02 04:05:03;;;;;;;0.80;0.80;;;;;;;;;;6308232;22;20248;-80
2021/12/02 04:07:32;;;;;;;1.13;1.13;;;;;;;;;;6307843;22;20176;-80
2021/12/02 04:10:01;;;;;;;2.00;1.20;;;;;;;;;;6308206;22;20179;-80
2021/12/02 04:12:34;;;;;;;1.33;1.17;;;;;;;;;;6307654;22;20175;-80
2021/12/02 04:15:06;;;;;;;3.47;1.67;;;;;;;;;;6308315;22;20167;-80
2021/12/02 04:17:42;;;;;;;1.07;1.07;;;;;;;;;;6307903;22;20157;-80
2021/12/02 04:20:14;;;;;;;0.90;0.90;;;;;;;;;;6307652;22;20167;-80
2021/12/02 04:22:43;;;;;;;0.80;0.80;;;;;;;;;;6307388;22;20195;-80
2021/12/02 04:25:12;;;;;;;3.77;1.73;;;;;;;;;;6307419;22;20236;-79
2021/12/02 04:27:40;;;;;;;1.87;1.73;;;;;;;;;;6308151;22;20237;-80
2021/12/02 04:30:12;;;;;;;0.90;0.90;;;;;;;;;;6307782;22;20201;-80
2021/12/02 04:32:40;;;;;;;4.70;1.57;;;;;;;;;;6308113;22;20159;-80
2021/12/02 04:35:12;;;;;;;3.50;1.20;;;;;;;;;;6307591;22;20195;-80
2021/12/02 04:37:43;;;;;;;1.43;1.33;;;;;;;;;;6307896;22;20156;-80
2021/12/02 04:40:14;;;;;;;5.50;1.43;;;;;;;;;;6308178;22;20202;-80
2021/12/02 04:42:43;;;;;;;1.43;1.13;;;;;;;;;;6307541;22;20191;-80
2021/12/02 04:45:13;;;;;;;1.40;1.40;;;;;;;;;;6308462;22;20179;-79
2021/12/02 04:47:42;;;;;;;0.93;0.93;;;;;;;;;;6307774;22;20167;-80
2021/12/02 04:50:11;;;;;;;5.50;5.23;;;;;;;;;;6307794;22;20174;-79
2021/12/02 04:52:39;;;;;;;1.30;1.30;;;;;;;;;;6307572;22;20170;-79
2021/12/02 04:55:09;;;;;;;4.20;1.07;;;;;;;;;;6307630;22;20184;-79
2021/12/02 04:57:37;;;;;;;6.37;1.13;;;;;;;;;;6308742;22;20243;-80
2021/12/02 05:00:07;;;;;;;7.27;1.33;;;;;;;;;;6309898;22;20185;-80
2021/12/02 05:02:37;;;;;;;1.33;1.20;;;;;;;;;;6309450;22;20236;-80
2021/12/02 05:05:06;;;;;;;1.30;1.30;;;;;;;;;;6310034;22;20177;-79
2021/12/02 05:07:34;;;;;;;1.00;1.00;;;;;;;;;;6309559;22;20179;-80
2021/12/02 05:10:03;;;;;;;2.17;1.20;;;;;;;;;;6309575;22;20230;-80
2021/12/02 05:12:32;;;;;;;4.07;1.10;;;;;;;;;;6309983;22;20223;-80
2021/12/02 05:15:00;;;;;;;9.83;1.70;;;;;;;;;;6309848;22;20224;-79
2021/12/02 05:17:28;;;;;;;6.43;1.83;;;;;;;;;;6309299;22;20174;-79
2021/12/02 05:20:00;;;;;;;1.53;1.43;;;;;;;;;;6309918;22;20183;-79
2021/12/02 05:22:29;;;;;;;3.67;2.20;;;;;;;;;;6309722;22;20163;-80
2021/12/02 05:24:57;;;;;;;2.53;1.83;;;;;;;;;;6309383;22;20207;-80
2021/12/02 05:27:26;;;;;;;2.63;2.53;;;;;;;;;;6309804;22;20163;-80
2021/12/02 05:29:54;;;;;;;1.07;1.07;;;;;;;;;;6309591;22;20567;-80
2021/12/02 05:32:22;;;;;;;1.03;1.03;;;;;;;;;;6309281;22;20171;-80
2021/12/02 05:34:51;;;;;;;0.90;0.90;;;;;;;;;;6309999;22;20182;-80
2021/12/02 05:37:23;;;;;;;1.67;1.57;;;;;;;;;;6309415;22;20182;-80
2021/12/02 05:39:51;;;;;;;3.57;1.40;;;;;;;;;;6309394;22;20184;-80
2021/12/02 05:42:20;;;;;;;0.80;0.80;;;;;;;;;;6309309;22;20172;-80
2021/12/02 05:44:53;;;;;;;0.80;0.80;;;;;;;;;;6309187;22;20248;-80
2021/12/02 05:47:21;;;;;;;1.40;1.20;;;;;;;;;;6309165;22;20179;-80
2021/12/02 05:49:50;;;;;;;5.27;1.77;;;;;;;;;;6309093;22;20218;-81
2021/12/02 05:52:21;;;;;;;10.20;1.53;;;;;;;;;;6309165;22;20164;-80
2021/12/02 05:54:51;;;;;;;2.67;1.77;;;;;;;;;;6309482;22;20173;-80
2021/12/02 05:57:19;;;;;;;8.77;2.20;;;;;;;;;;6309265;22;20164;-80
2021/12/02 05:59:48;;;;;;;0.70;0.70;;;;;;;;;;6309116;22;20188;-80
2021/12/02 06:02:17;;;;;;;8.37;2.10;;;;;;;;;;6308694;22;20193;-81
2021/12/02 06:04:50;;;;;;;8.40;1.40;;;;;;;;;;6308983;22;20209;-81
2021/12/02 06:07:18;;;;;;;1.70;1.57;;;;;;;;;;6309347;22;20176;-80
2021/12/02 06:09:47;;;;;;;1.73;1.63;;;;;;;;;;6309097;22;20201;-81
2021/12/02 06:12:17;;;;;;;1.27;1.20;;;;;;;;;;6309316;22;20187;-82
2021/12/02 06:14:45;;;;;;;0.70;0.70;;;;;;;;;;6309349;22;20171;-81
2021/12/02 06:17:17;;;;;;;0.70;0.70;;;;;;;;;;6308891;22;20200;-81
2021/12/02 06:19:45;;;;;;;0.80;0.80;;;;;;;;;;6308953;22;20175;-80
2021/12/02 06:22:14;;;;;;;0.80;0.80;;;;;;;;;;6308786;22;20198;-81
2021/12/02 06:24:46;;;;;;;0.80;0.80;;;;;;;;;;6309077;22;20194;-80
2021/12/02 06:27:14;;;;;;;0.80;0.80;;;;;;;;;;6309462;22;20193;-81
2021/12/02 06:29:47;;;;;;;0.80;0.80;;;;;;;;;;6308937;22;20174;-81
2021/12/02 06:32:15;;;;;;;0.80;0.80;;;;;;;;;;6309246;22;20220;-81
2021/12/02 06:34:44;;;;;;;0.80;0.80;;;;;;;;;;6309739;22;20164;-80
2021/12/02 06:37:12;;;;;;;0.80;0.80;;;;;;;;;;6308638;22;20179;-81
2021/12/02 06:39:41;;;;;;;0.80;0.80;;;;;;;;;;6309044;22;20239;-81
2021/12/02 06:42:12;;;;;;;0.80;0.80;;;;;;;;;;6308902;22;20229;-81
2021/12/02 06:44:40;;;;;;;0.80;0.80;;;;;;;;;;6308797;22;20205;-81
2021/12/02 06:47:10;;;;;;;0.80;0.80;;;;;;;;;;6308577;22;20183;-81
2021/12/02 06:49:40;;;;;;;0.80;0.80;;;;;;;;;;6308428;22;20179;-80
2021/12/02 06:52:10;;;;;;;0.80;0.80;;;;;;;;;;6308517;22;20170;-81
2021/12/02 06:54:39;;;;;;;0.80;0.80;;;;;;;;;;6308974;22;20160;-81
2021/12/02 06:57:09;;;;;;;0.80;0.80;;;;;;;;;;6308508;22;20175;-81
2021/12/02 06:59:40;;;;;;;0.80;0.80;;;;;;;;;;6308659;22;20198;-80
2021/12/02 07:02:10;;;;;;;0.80;0.80;;;;;;;;;;6308445;22;20181;-81
2021/12/02 07:04:39;;;;;;;0.80;0.80;;;;;;;;;;6308190;22;20246;-81
2021/12/02 07:07:07;;;;;;;0.80;0.80;;;;;;;;;;6308748;22;20174;-82
2021/12/02 07:09:37;;;;;;;0.70;0.70;;;;;;;;;;6308692;22;20235;-82
2021/12/02 07:12:05;;;;;;;0.80;0.80;;;;;;;;;;6308066;22;20185;-82
2021/12/02 07:14:34;;;;;;;0.80;0.80;;;;;;;;;;6308014;22;20164;-82
2021/12/02 07:17:03;;;;;;;0.80;0.80;;;;;;;;;;6308387;22;20183;-82
2021/12/02 07:19:32;;;;;;;0.80;0.80;;;;;;;;;;6308024;22;20169;-81
2021/12/02 07:22:01;;;;;;;0.80;0.80;;;;;;;;;;6308437;22;20174;-82
2021/12/02 07:24:29;;;;;;;0.80;0.80;;;;;;;;;;6307902;22;20194;-82
2021/12/02 07:27:06;;;;;;;0.80;0.80;;;;;;;;;;6308319;22;20204;-82
2021/12/02 07:29:35;;;;;;;0.80;0.80;;;;;;;;;;6308267;22;20269;-82
2021/12/02 07:32:03;;;;;;;0.80;0.80;;;;;;;;;;6308584;22;20225;-82
2021/12/02 07:34:37;;;;;;;0.80;0.80;;;;;;;;;;6308347;22;20249;-83
2021/12/02 07:37:05;;;;;;;0.80;0.80;;;;;;;;;;6308257;22;20175;-83
2021/12/02 07:39:34;;;;;;;0.80;0.80;;;;;;;;;;6308135;22;20200;-82
2021/12/02 07:42:22;;;;;;;0.80;0.80;;;;;;;;;;6307964;22;20255;-83
2021/12/02 07:44:52;;;;;;;0.80;0.80;;;;;;;;;;6308527;22;20198;-82
2021/12/02 07:47:21;;;;;;;0.80;0.80;;;;;;;;;;6308492;22;20172;-82
2021/12/02 07:49:51;;;;;;;0.77;0.77;;;;;;;;;;6308194;22;20229;-82
2021/12/02 07:52:21;;;;;;;0.80;0.80;;;;;;;;;;6308361;22;20171;-82
2021/12/02 07:54:51;;;;;;;0.80;0.80;;;;;;;;;;6308016;22;20220;-82
2021/12/02 07:57:24;;;;;;;0.80;0.80;;;;;;;;;;6308038;22;20171;-82
2021/12/02 07:59:57;;;;;;;0.80;0.80;;;;;;;;;;6307875;22;20249;-83
2021/12/02 08:02:28;;;;;;;0.80;0.80;;;;;;;;;;6308245;22;20176;-83
2021/12/02 08:04:59;;;;;;;0.80;0.80;;;;;;;;;;6307786;22;20191;-83
2021/12/02 08:07:28;;;;;;;0.80;0.80;;;;;;;;;;6307608;22;20173;-83
2021/12/02 08:09:56;;;;;;;0.80;0.80;;;;;;;;;;6307780;22;20174;-83
2021/12/02 08:12:27;;;;;;;0.70;0.70;;;;;;;;;;6308218;22;20230;-83
2021/12/02 08:15:01;;;;;;;0.80;0.80;;;;;;;;;;6307776;22;20171;-83
2021/12/02 08:17:31;;;;;;;0.80;0.80;;;;;;;;;;6307770;22;20169;-84
2021/12/02 08:20:12;;;;;;;0.70;0.70;;;;;;;;;;6308005;22;20168;-83
2021/12/02 08:22:43;;;;;;;0.80;0.80;;;;;;;;;;6307801;22;20180;-84
2021/12/02 08:25:15;;;;;;;0.80;0.80;;;;;;;;;;6307285;22;20194;-84
2021/12/02 08:27:46;;;;;;;0.80;0.80;;;;;;;;;;6307486;22;20203;-84
2021/12/02 08:30:19;;;;;;;0.90;0.90;;;;;;;;;;6308001;22;20163;-84
2021/12/02 08:32:47;;;;;;;0.80;0.80;;;;;;;;;;6309515;22;20163;-84
2021/12/02 08:35:19;;;;;;;0.80;0.80;;;;;;;;;;6309667;22;20174;-84
2021/12/02 08:37:57;;;;;;;0.80;0.80;;;;;;;;;;6310291;22;20172;-83
2021/12/02 08:40:31;;;;;;;0.80;0.80;;;;;;;;;;6308432;22;20164;-84
2021/12/02 08:43:00;;;;;;;0.80;0.80;;;;;;;;;;6309225;22;20172;-82
2021/12/02 08:45:32;;;;;;;0.80;0.80;;;;;;;;;;6307703;22;20274;-81
2021/12/02 08:48:04;;;;;;;0.80;0.80;;;;;;;;;;6308697;22;20168;-81
2021/12/02 08:50:34;;;;;;;0.87;0.87;;;;;;;;;;6308639;22;20194;-81
2021/12/02 08:53:06;;;;;;;0.80;0.80;;;;;;;;;;6309254;22;20221;-80
2021/12/02 08:55:35;;;;;;;0.70;0.70;;;;;;;;;;6308581;22;20186;-81
2021/12/02 08:58:04;;;;;;;0.80;0.80;;;;;;;;;;6308678;22;20198;-82
2021/12/02 09:00:35;;;;;;;0.70;0.70;;;;;;;;;;6308990;22;20172;-83
2021/12/02 09:03:06;;;;;;;0.80;0.80;;;;;;;;;;6309267;22;20265;-83
2021/12/02 09:05:50;;;;;;;0.80;0.80;;;;;;;;;;6308488;22;20192;-83
2021/12/02 09:08:20;;;;;;;0.70;0.70;;;;;;;;;;6309177;22;20226;-82
2021/12/02 09:10:48;;;;;;;0.70;0.70;;;;;;;;;;6308180;22;20172;-84
2021/12/02 09:13:20;;;;;;;0.80;0.80;;;;;;;;;;6309107;22;20178;-82
2021/12/02 09:15:49;;;;;;;0.80;0.80;;;;;;;;;;6309157;22;20168;-83
2021/12/02 09:18:18;;;;;;;0.80;0.80;;;;;;;;;;6308846;22;20171;-82
2021/12/02 09:20:51;;;;;;;0.80;0.80;;;;;;;;;;6282102;22;20175;-85
2021/12/02 09:23:20;;;;;;;0.80;0.80;;;;;;;;;;6308878;22;20179;-85
2021/12/02 09:25:49;;;;;;;0.80;0.80;;;;;;;;;;6308786;22;20212;-85
2021/12/02 09:28:18;;;;;;;0.80;0.80;;;;;;;;;;6308238;22;20190;-84
2021/12/02 09:30:48;;;;;;;0.70;0.70;;;;;;;;;;6308064;22;20172;-82
2021/12/02 09:33:18;;;;;;;0.70;0.70;;;;;;;;;;6308517;22;20251;-83
2021/12/02 09:35:47;;;;;;;0.80;0.80;;;;;;;;;;6308910;22;20165;-82
2021/12/02 09:38:17;;;;;;;0.80;0.80;;;;;;;;;;6308434;22;20177;-83
2021/12/02 09:40:46;;;;;;;0.70;0.70;;;;;;;;;;6308548;22;20160;-82
2021/12/02 09:43:15;;;;;;;0.80;0.80;;;;;;;;;;6308354;22;20251;-83
2021/12/02 09:45:44;;;;;;;0.70;0.70;;;;;;;;;;6308476;22;20224;-84
2021/12/02 09:48:13;;;;;;;0.80;0.80;;;;;;;;;;6308655;22;20176;-84
2021/12/02 09:50:52;;;;;;;0.80;0.80;;;;;;;;;;6308530;22;20178;-84
2021/12/02 09:53:25;;;;;;;0.90;0.90;;;;;;;;;;6308086;22;20159;-82
2021/12/02 09:56:03;;;;;;;0.80;0.80;;;;;;;;;;6281290;22;20214;-83
2021/12/02 09:58:35;;;;;;;0.80;0.80;;;;;;;;;;6308549;22;20178;-82
2021/12/02 10:01:08;;;;;;;0.80;0.80;;;;;;;;;;6308150;22;20169;-83
2021/12/02 10:03:38;;;;;;;0.80;0.80;;;;;;;;;;6308851;22;20222;-82
2021/12/02 10:06:08;;;;;;;0.80;0.80;;;;;;;;;;6308758;22;20200;-82
2021/12/02 10:08:49;;;;;;;0.70;0.70;;;;;;;;;;6308725;22;20175;-82
2021/12/02 10:11:27;;;;;;;0.80;0.80;;;;;;;;;;6308106;22;20161;-81
2021/12/02 10:14:00;;;;;;;0.80;0.80;;;;;;;;;;6308310;22;20224;-81
2021/12/02 10:16:31;;;;;;;0.80;0.80;;;;;;;;;;6308036;22;20168;-82
2021/12/02 10:19:04;;;;;;;0.80;0.80;;;;;;;;;;6308738;22;20225;-82
2021/12/02 10:21:38;;;;;;;0.80;0.80;;;;;;;;;;6307179;22;20237;-82
2021/12/02 10:24:09;;;;;;;0.80;0.80;;;;;;;;;;6308269;22;20176;-82
2021/12/02 10:26:39;;;;;;;0.80;0.80;;;;;;;;;;6308173;22;20204;-82
2021/12/02 10:29:14;;;;;;;0.70;0.70;;;;;;;;;;6307912;22;20172;-82
2021/12/02 10:31:47;;;;;;;0.80;0.80;;;;;;;;;;6308626;22;20169;-82
2021/12/02 10:34:18;;;;;;;0.80;0.80;;;;;;;;;;6308104;22;20251;-83
2021/12/02 10:36:56;;;;;;;0.70;0.70;;;;;;;;;;6308279;22;20164;-82
2021/12/02 10:39:26;;;;;;;0.80;0.80;;;;;;;;;;6308266;22;20171;-82
2021/12/02 10:41:58;;;;;;;0.80;0.80;;;;;;;;;;6308353;22;20237;-83
2021/12/02 10:44:31;;;;;;;0.70;0.70;;;;;;;;;;6308277;22;20182;-83
2021/12/02 10:47:04;;;;;;;0.80;0.80;;;;;;;;;;6308658;22;20241;-82
2021/12/02 10:49:35;;;;;;;0.80;0.80;;;;;;;;;;6308089;22;20169;-82
2021/12/02 10:52:06;;;;;;;0.70;0.70;;;;;;;;;;6307751;22;20173;-82
2021/12/02 10:54:37;;;;;;;0.70;0.70;;;;;;;;;;6307937;22;20168;-82
2021/12/02 10:57:09;;;;;;;0.80;0.80;;;;;;;;;;6307585;22;20168;-82
2021/12/02 10:59:41;;;;;;;0.77;0.77;;;;;;;;;;6308395;22;20175;-81
2021/12/02 11:02:17;;;;;;;0.70;0.70;;;;;;;;;;6308381;22;20226;-81
2021/12/02 11:04:47;;;;;;;0.70;0.70;;;;;;;;;;6307955;22;20192;-81
2021/12/02 11:07:23;;;;;;;0.80;0.80;;;;;;;;;;6307866;22;20197;-81
2021/12/02 11:09:54;;;;;;;0.70;0.70;;;;;;;;;;6308322;22;20215;-81
2021/12/02 11:12:24;;;;;;;0.80;0.80;;;;;;;;;;6308180;22;20164;-82
2021/12/02 11:15:07;;;;;;;0.80;0.80;;;;;;;;;;6308140;22;20173;-82
2021/12/02 11:17:38;;;;;;;0.80;0.80;;;;;;;;;;6305254;22;20168;-81
2021/12/02 11:20:09;;;;;;;0.70;0.70;;;;;;;;;;6307864;22;20177;-81
2021/12/02 11:22:37;;;;;;;0.80;0.80;;;;;;;;;;6308017;22;20178;-80
2021/12/02 11:25:09;;;;;;;0.70;0.70;;;;;;;;;;6308554;22;20191;-81
2021/12/02 11:27:39;;;;;;;0.80;0.80;;;;;;;;;;6307777;22;20212;-82
2021/12/02 11:30:12;;;;;;;0.70;0.70;;;;;;;;;;6308087;22;20172;-81
2021/12/02 11:32:49;;;;;;;0.80;0.80;;;;;;;;;;6308504;22;20156;-81
2021/12/02 11:35:23;;;;;;;0.80;0.80;;;;;;;;;;6307943;22;20168;-81
2021/12/02 11:37:53;;;;;;;0.80;0.80;;;;;;;;;;6307764;22;20200;-82
2021/12/02 11:40:24;;;;;;;0.70;0.70;;;;;;;;;;6308290;22;20218;-81
2021/12/02 11:42:53;;;;;;;1.17;1.17;;;;;;;;;;6307616;22;20168;-81
2021/12/02 11:45:24;;;;;;;0.70;0.70;;;;;;;;;;6308178;22;20221;-82
2021/12/02 11:47:53;;;;;;;0.70;0.70;;;;;;;;;;6308096;22;20246;-81
2021/12/02 11:50:23;;;;;;;0.70;0.70;;;;;;;;;;6308134;22;20172;-81
2021/12/02 11:52:51;;;;;;;0.80;0.80;;;;;;;;;;6308300;22;20179;-81
2021/12/02 11:55:23;;;;;;;0.80;0.80;;;;;;;;;;6307490;22;20172;-81
2021/12/02 11:57:54;;;;;;;0.80;0.80;;;;;;;;;;6308028;22;20161;-81
2021/12/02 12:00:25;;;;;;;0.80;0.80;;;;;;;;;;6308265;22;20172;-81
2021/12/02 12:02:56;;;;;;;0.80;0.80;;;;;;;;;;6307414;22;20192;-81
2021/12/02 12:05:27;;;;;;;0.80;0.80;;;;;;;;;;6307933;22;20164;-81
2021/12/02 12:07:55;;;;;;;0.70;0.70;;;;;;;;;;6307612;22;20184;-81
2021/12/02 12:10:26;;;;;;;0.80;0.80;;;;;;;;;;6307936;22;20176;-81
2021/12/02 12:13:12;;;;;;;0.80;0.80;;;;;;;;;;6307406;22;20160;-81
2021/12/02 12:15:42;;;;;;;0.80;0.80;;;;;;;;;;6308105;22;20172;-81
2021/12/02 12:18:12;;;;;;;0.80;0.80;;;;;;;;;;6307696;22;20191;-81
2021/12/02 12:21:03;;;;;;;0.80;0.80;;;;;;;;;;6307982;22;20168;-82
2021/12/02 12:23:33;;;;;;;0.80;0.80;;;;;;;;;;6307360;22;20172;-82
2021/12/02 12:26:24;;;;;;;0.70;0.70;;;;;;;;;;6306956;22;20180;-82
2021/12/02 12:29:13;;;;;;;0.80;0.80;;;;;;;;;;6300309;22;20172;-82
2021/12/02 12:32:01;;;;;;;0.80;0.80;;;;;;;;;;6307331;22;20176;-82
2021/12/02 12:34:57;;;;;;;0.80;0.80;;;;;;;;;;6307773;22;20172;-82
2021/12/02 12:37:57;;;;;;;0.70;0.70;;;;;;;;;;6307603;22;20168;-82
2021/12/02 12:40:41;;;;;;;0.80;0.80;;;;;;;;;;6308133;22;20165;-83
2021/12/02 12:43:34;;;;;;;0.77;0.77;;;;;;;;;;6305093;22;20176;-82
2021/12/02 12:46:07;;;;;;;0.87;0.87;;;;;;;;;;6308039;22;20175;-82
2021/12/02 12:48:35;;;;;;;0.90;0.90;;;;;;;;;;6307610;22;20188;-83
2021/12/02 12:51:20;;;;;;;0.80;0.80;;;;;;;;;;6307777;22;20171;-83
2021/12/02 12:53:50;;;;;;;0.80;0.80;;;;;;;;;;6307775;22;20160;-83
2021/12/02 12:56:20;;;;;;;0.80;0.80;;;;;;;;;;6308085;22;20168;-83
2021/12/02 12:59:12;;;;;;;0.80;0.80;;;;;;;;;;6307421;22;20192;-82
2021/12/02 13:01:42;;;;;;;0.80;0.80;;;;;;;;;;6269245;22;20176;-84
2021/12/02 13:04:18;;;;;;;0.80;0.80;;;;;;;;;;6307455;22;20207;-84
2021/12/02 13:06:53;;;;;;;0.80;0.80;;;;;;;;;;6307653;22;20161;-84
2021/12/02 13:09:53;;;;;;;0.80;0.80;;;;;;;;;;6307474;22;20160;-83
2021/12/02 13:12:28;;;;;;;0.80;0.80;;;;;;;;;;6255791;22;20177;-83
2021/12/02 13:14:58;;;;;;;0.80;0.80;;;;;;;;;;6307251;22;20178;-83
2021/12/02 13:17:40;;;;;;;0.80;0.80;;;;;;;;;;6307703;22;20164;-84
2021/12/02 13:20:20;;;;;;;0.80;0.80;;;;;;;;;;6309398;22;20218;-83
2021/12/02 13:23:11;;;;;;;0.80;0.80;;;;;;;;;;6309970;22;20243;-84
2021/12/02 13:25:44;;;;;;;0.80;0.80;;;;;;;;;;6308974;22;20172;-83
2021/12/02 13:28:17;;;;;;;0.80;0.80;;;;;;;;;;6309284;22;20208;-83
2021/12/02 13:30:48;;;;;;;0.80;0.80;;;;;;;;;;6309635;22;20172;-84
2021/12/02 13:33:17;;;;;;;0.70;0.70;;;;;;;;;;6309270;22;20175;-84
2021/12/02 13:35:49;;;;;;;0.80;0.80;;;;;;;;;;6309442;22;20172;-83
2021/12/02 13:38:18;;;;;;;0.80;0.80;;;;;;;;;;6309066;22;20182;-83
2021/12/02 13:40:50;;;;;;;0.80;0.80;;;;;;;;;;6309842;22;20161;-84
2021/12/02 13:43:19;;;;;;;0.70;0.70;;;;;;;;;;6309273;22;20180;-83
2021/12/02 13:45:50;;;;;;;0.70;0.70;;;;;;;;;;6309469;22;20169;-84
2021/12/02 13:48:23;;;;;;;0.70;0.70;;;;;;;;;;6309067;22;20216;-83
2021/12/02 13:50:55;;;;;;;0.70;0.70;;;;;;;;;;6309483;22;20161;-84
2021/12/02 13:53:25;;;;;;;0.70;0.70;;;;;;;;;;6308876;22;20169;-84
2021/12/02 13:55:54;;;;;;;0.70;0.70;;;;;;;;;;6308987;22;20180;-84
2021/12/02 13:58:29;;;;;;;0.70;0.70;;;;;;;;;;6309517;22;20196;-84
2021/12/02 14:00:59;;;;;;;0.80;0.80;;;;;;;;;;6308946;22;20160;-84
2021/12/02 14:03:29;;;;;;;0.70;0.70;;;;;;;;;;6308689;22;20197;-84
2021/12/02 14:06:02;;;;;;;0.80;0.80;;;;;;;;;;6309003;22;20195;-84
2021/12/02 14:08:37;;;;;;;0.80;0.80;;;;;;;;;;6308485;22;20292;-85
2021/12/02 14:11:06;;;;;;;0.70;0.70;;;;;;;;;;6309854;22;20161;-84
2021/12/02 14:13:34;;;;;;;0.70;0.70;;;;;;;;;;6308953;22;20172;-84
2021/12/02 14:16:07;;;;;;;0.73;0.73;;;;;;;;;;6308938;22;20204;-84
2021/12/02 14:18:36;;;;;;;0.80;0.80;;;;;;;;;;6308771;22;20169;-85
2021/12/02 14:21:05;;;;;;;0.73;0.73;;;;;;;;;;6308733;22;20202;-85
2021/12/02 14:23:37;;;;;;;0.80;0.80;;;;;;;;;;6308864;22;20196;-84
2021/12/02 14:26:09;;;;;;;0.70;0.70;;;;;;;;;;6308342;22;20172;-83
2021/12/02 14:28:39;;;;;;;0.80;0.80;;;;;;;;;;6308465;22;20246;-85
2021/12/02 14:31:08;;;;;;;0.70;0.70;;;;;;;;;;6309003;22;20179;-85
2021/12/02 14:33:38;;;;;;;0.80;0.80;;;;;;;;;;6308416;22;20168;-85
2021/12/02 14:36:09;;;;;;;0.80;0.80;;;;;;;;;;6308541;22;20173;-85
2021/12/02 14:38:40;;;;;;;0.70;0.70;;;;;;;;;;6308841;22;20255;-86
2021/12/02 14:41:10;;;;;;;0.70;0.70;;;;;;;;;;6308491;22;20199;-86
2021/12/02 14:43:45;;;;;;;0.70;0.70;;;;;;;;;;6308419;22;20173;-85
2021/12/02 14:46:19;;;;;;;0.80;0.80;;;;;;;;;;6308535;22;20172;-85
2021/12/02 14:49:00;;;;;;;0.70;0.70;;;;;;;;;;6308555;22;20196;-85
2021/12/02 14:51:28;;;;;;;0.80;0.80;;;;;;;;;;6308214;22;20168;-85
2021/12/02 14:54:02;;;;;;;0.80;0.80;;;;;;;;;;6308528;22;20172;-85
2021/12/02 14:56:35;;;;;;;0.80;0.80;;;;;;;;;;6308968;22;20173;-85
2021/12/02 14:59:21;;;;;;;0.70;0.70;;;;;;;;;;6308625;22;20198;-85
2021/12/02 15:02:01;;;;;;;0.80;0.80;;;;;;;;;;6308378;22;20252;-85
2021/12/02 15:04:31;;;;;;;0.80;0.80;;;;;;;;;;6308422;22;20184;-85
2021/12/02 15:07:14;;;;;;;0.80;0.80;;;;;;;;;;6308690;22;20182;-85
2021/12/02 15:09:47;;;;;;;0.80;0.80;;;;;;;;;;6308156;22;20192;-85
2021/12/02 15:12:18;;;;;;;0.80;0.80;;;;;;;;;;6308281;22;20180;-84